Terminal Aerodrome Forecast
Issued by NWS Upton, NY

Home | Current Version | Previous Version | Text Only | Print | Product List | Glossary On
Versions: 1 2 3 4 5 6 7 8 9 10 11 12 13 14 15 16 17 18 19 20 21 22 23 24 25 26 27
000
FTUS41 KOKX 030237 AAA
TAFBDR
TAF AMD
KBDR 030237Z 0303/0324 05007KT P6SM SCT010 BKN025
     FM031200 06006KT P6SM SCT017 OVC030
     FM031500 09010KT P6SM SCT030 OVC050
     FM031900 11009KT P6SM BKN050=

USA.gov is the U.S. government's official web portal to all federal, state and local government web resources and services.